createdAt,value
2018-03-29T00:01:40.867Z,3.30
2018-03-29T00:04:07.062Z,3.20
2018-03-29T00:06:33.250Z,3.15
2018-03-29T00:08:59.466Z,3.30
2018-03-29T00:11:25.682Z,3.50
2018-03-29T00:13:51.860Z,3.30
2018-03-29T00:16:18.087Z,3.00
2018-03-29T00:18:44.309Z,3.28
2018-03-29T00:21:10.488Z,3.10
2018-03-29T00:23:37.465Z,3.12
2018-03-29T00:26:03.682Z,3.00
2018-03-29T00:28:29.905Z,3.00
2018-03-29T00:30:58.402Z,3.08
2018-03-29T00:33:24.748Z,3.08
2018-03-29T00:35:51.397Z,3.00
2018-03-29T00:38:18.305Z,3.30
2018-03-29T00:40:44.689Z,3.40
2018-03-29T00:43:10.986Z,3.30
2018-03-29T00:45:37.195Z,3.30
2018-03-29T00:48:03.408Z,3.50
2018-03-29T00:50:29.651Z,4.05
2018-03-29T00:52:55.952Z,3.70
2018-03-29T00:55:22.158Z,4.00
2018-03-29T00:57:49.196Z,4.45
2018-03-29T01:00:15.447Z,4.60
2018-03-29T01:02:42.440Z,4.50
2018-03-29T01:05:08.646Z,5.10
2018-03-29T01:07:34.851Z,4.80
2018-03-29T01:10:01.212Z,5.20
2018-03-29T01:12:27.559Z,5.10
2018-03-29T01:14:53.763Z,4.65
2018-03-29T01:17:20.010Z,5.20
2018-03-29T01:19:46.236Z,5.60
2018-03-29T01:22:12.457Z,5.35
2018-03-29T01:24:38.703Z,5.45
2018-03-29T01:27:04.983Z,5.43
2018-03-29T01:29:31.235Z,5.25
2018-03-29T01:31:57.474Z,5.00
2018-03-29T01:34:23.691Z,5.28
2018-03-29T01:36:49.988Z,5.60
2018-03-29T01:39:16.250Z,5.63
2018-03-29T01:41:42.508Z,6.15
2018-03-29T01:44:08.726Z,6.00
2018-03-29T01:46:34.951Z,5.82
2018-03-29T01:49:01.148Z,6.70
2018-03-29T01:51:27.336Z,6.30
2018-03-29T01:53:54.263Z,5.97
2018-03-29T01:56:20.452Z,7.03
2018-03-29T01:58:46.640Z,6.07
2018-03-29T02:01:15.063Z,7.20
2018-03-29T02:03:41.278Z,7.70
2018-03-29T02:06:07.487Z,6.33
2018-03-29T02:08:33.680Z,7.05
2018-03-29T02:10:59.973Z,8.27
2018-03-29T02:13:26.348Z,9.67
2018-03-29T02:15:53.489Z,9.20
2018-03-29T02:18:19.772Z,10.15
2018-03-29T02:20:45.997Z,10.95
2018-03-29T02:23:12.236Z,11.05
2018-03-29T02:25:38.414Z,12.15
2018-03-29T02:28:05.393Z,11.15
2018-03-29T02:30:31.724Z,11.60
2018-03-29T02:32:57.988Z,11.20
2018-03-29T02:35:24.505Z,11.40
2018-03-29T02:37:50.743Z,11.70
2018-03-29T02:40:16.945Z,10.43
2018-03-29T02:42:43.115Z,10.65
2018-03-29T02:45:10.123Z,10.23
2018-03-29T02:47:36.309Z,10.95
2018-03-29T02:50:03.351Z,11.57
2018-03-29T02:52:30.457Z,11.70
2018-03-29T02:54:56.706Z,10.35
2018-03-29T02:57:22.923Z,10.05
2018-03-29T02:59:49.170Z,10.65
2018-03-29T03:02:15.410Z,10.57
2018-03-29T03:04:41.688Z,10.65
2018-03-29T03:07:07.917Z,10.35
2018-03-29T03:09:34.180Z,11.02
2018-03-29T03:12:00.497Z,10.93
2018-03-29T03:14:26.729Z,11.40
2018-03-29T03:16:52.904Z,10.18
2018-03-29T03:19:19.147Z,11.25
2018-03-29T03:21:45.358Z,12.13
2018-03-29T03:24:11.608Z,10.98
2018-03-29T03:26:37.786Z,11.30
2018-03-29T03:29:04.803Z,11.73
2018-03-29T03:31:31.095Z,11.48
2018-03-29T03:33:57.394Z,11.80
2018-03-29T03:36:24.440Z,11.88
2018-03-29T03:38:51.497Z,12.02
2018-03-29T03:41:17.790Z,11.93
2018-03-29T03:43:44.081Z,12.52
2018-03-29T03:46:10.410Z,11.50
2018-03-29T03:48:36.666Z,12.43
2018-03-29T03:51:02.961Z,11.93
2018-03-29T03:53:29.216Z,12.20
2018-03-29T03:55:55.443Z,12.10
2018-03-29T03:58:21.790Z,11.30
2018-03-29T04:00:48.085Z,12.20
2018-03-29T04:03:14.333Z,11.93
2018-03-29T04:05:40.597Z,11.50
2018-03-29T04:08:07.553Z,12.40
2018-03-29T04:10:33.819Z,12.65
2018-03-29T04:13:00.069Z,13.62
2018-03-29T04:15:26.278Z,12.37
2018-03-29T04:17:52.540Z,13.07
2018-03-29T04:20:18.811Z,12.93
2018-03-29T04:22:45.049Z,11.90
2018-03-29T04:25:11.310Z,12.48
2018-03-29T04:27:37.532Z,12.88
2018-03-29T04:30:03.813Z,12.73
2018-03-29T04:32:30.086Z,12.25
2018-03-29T04:34:56.345Z,13.13
2018-03-29T04:37:22.686Z,16.00
2018-03-29T04:39:49.615Z,12.52
2018-03-29T04:42:16.589Z,12.15
2018-03-29T04:44:42.795Z,12.05
2018-03-29T04:47:09.699Z,11.65
2018-03-29T04:49:35.889Z,11.15
2018-03-29T04:52:02.056Z,11.70
2018-03-29T04:54:28.305Z,12.63
2018-03-29T04:56:54.511Z,12.63
2018-03-29T04:59:20.693Z,10.63
2018-03-29T05:01:46.889Z,12.20
2018-03-29T05:04:13.073Z,12.13
2018-03-29T05:06:39.346Z,11.57
2018-03-29T05:09:05.520Z,11.68
2018-03-29T05:11:31.740Z,11.35
2018-03-29T05:13:57.910Z,11.32
2018-03-29T05:16:24.119Z,10.00
2018-03-29T05:18:50.334Z,11.60
2018-03-29T05:21:16.601Z,11.05
2018-03-29T05:23:42.816Z,11.38
2018-03-29T05:26:09.043Z,10.27
2018-03-29T05:28:35.241Z,11.20
2018-03-29T05:31:01.457Z,11.55
2018-03-29T05:33:27.677Z,10.60
2018-03-29T05:35:53.859Z,10.95
2018-03-29T05:38:20.051Z,10.90
2018-03-29T05:40:46.272Z,10.77
2018-03-29T05:43:12.484Z,10.75
2018-03-29T05:45:38.645Z,10.70
2018-03-29T05:48:04.853Z,10.95
2018-03-29T05:50:31.101Z,9.77
2018-03-29T05:52:57.273Z,11.30
2018-03-29T05:55:24.236Z,10.30
2018-03-29T05:57:51.202Z,9.90
2018-03-29T06:00:17.394Z,8.43
2018-03-29T06:02:43.577Z,7.78
2018-03-29T06:05:09.770Z,7.70
2018-03-29T06:07:35.958Z,8.60
2018-03-29T06:10:02.944Z,8.00
2018-03-29T06:12:29.130Z,7.90
2018-03-29T06:14:56.097Z,8.15
2018-03-29T06:17:25.300Z,7.22
2018-03-29T06:19:51.481Z,7.50
2018-03-29T06:22:17.692Z,5.80
2018-03-29T06:24:43.980Z,6.97
2018-03-29T06:27:10.347Z,7.00
2018-03-29T06:29:36.650Z,7.43
2018-03-29T06:32:02.876Z,6.50
2018-03-29T06:34:29.105Z,7.22
2018-03-29T06:36:55.603Z,6.68
2018-03-29T06:39:21.838Z,6.83
2018-03-29T06:41:48.981Z,6.90
2018-03-29T06:44:15.231Z,6.60
2018-03-29T06:46:41.477Z,7.05
2018-03-29T06:49:07.659Z,7.03
2018-03-29T06:51:34.641Z,6.82
2018-03-29T06:54:00.859Z,6.55
2018-03-29T06:56:27.153Z,6.25
2018-03-29T06:58:54.789Z,6.53
2018-03-29T07:01:21.026Z,5.83
2018-03-29T07:03:47.182Z,5.80
2018-03-29T07:06:13.405Z,6.10
2018-03-29T07:08:40.390Z,5.37
2018-03-29T07:11:06.654Z,5.20
2018-03-29T07:13:32.856Z,5.20
2018-03-29T07:15:59.086Z,4.85
2018-03-29T07:18:25.282Z,4.45
2018-03-29T07:20:51.502Z,4.97
2018-03-29T07:23:17.713Z,5.10
2018-03-29T07:25:44.693Z,4.68
2018-03-29T07:28:11.014Z,4.50
2018-03-29T07:30:37.366Z,4.20
2018-03-29T07:33:03.598Z,4.40
2018-03-29T07:35:29.926Z,3.92
2018-03-29T07:37:56.219Z,3.83
2018-03-29T07:40:22.479Z,4.57
2018-03-29T07:42:48.689Z,4.00
2018-03-29T07:45:14.987Z,3.90
2018-03-29T07:47:42.119Z,4.30
2018-03-29T07:50:08.578Z,4.10
2018-03-29T07:52:34.865Z,4.07
2018-03-29T07:55:01.154Z,3.70
2018-03-29T07:57:29.529Z,3.45
2018-03-29T07:59:55.902Z,3.60
2018-03-29T08:02:24.395Z,3.70
2018-03-29T08:04:50.968Z,3.83
2018-03-29T08:07:17.256Z,3.47
2018-03-29T08:09:43.537Z,3.30
2018-03-29T08:12:10.181Z,3.37
2018-03-29T08:14:36.448Z,3.55
2018-03-29T08:17:02.755Z,4.28
2018-03-29T08:19:29.044Z,4.15
2018-03-29T08:21:55.326Z,3.57
2018-03-29T08:24:21.533Z,3.57
2018-03-29T08:26:47.748Z,4.10
2018-03-29T08:29:13.979Z,3.90
2018-03-29T08:31:40.205Z,4.00
2018-03-29T08:34:06.483Z,4.15
2018-03-29T08:36:32.734Z,4.30
2018-03-29T08:38:59.725Z,3.90
2018-03-29T08:41:26.011Z,4.78
2018-03-29T08:43:53.592Z,4.65
2018-03-29T08:46:20.073Z,4.10
2018-03-29T08:48:46.647Z,4.50
2018-03-29T08:51:12.946Z,5.15
2018-03-29T08:53:40.443Z,4.20
2018-03-29T08:56:06.699Z,4.50
2018-03-29T08:58:32.967Z,4.30
2018-03-29T09:00:59.922Z,3.80
2018-03-29T09:03:26.302Z,4.00
2018-03-29T09:05:53.618Z,4.05
2018-03-29T09:08:19.862Z,4.00
2018-03-29T09:10:46.148Z,3.72
2018-03-29T09:13:13.351Z,3.20
2018-03-29T09:15:39.671Z,4.57
2018-03-29T09:18:05.965Z,3.80
2018-03-29T09:20:32.989Z,3.85
2018-03-29T09:22:59.224Z,3.70
2018-03-29T09:25:25.481Z,4.10
2018-03-29T09:27:51.725Z,4.70
2018-03-29T09:30:18.139Z,4.40
2018-03-29T09:32:44.373Z,4.20
2018-03-29T09:35:10.613Z,4.70
2018-03-29T09:37:36.824Z,4.80
2018-03-29T09:40:03.079Z,6.50
2018-03-29T09:42:29.291Z,4.90
2018-03-29T09:44:55.484Z,4.30
2018-03-29T09:47:22.476Z,4.40
2018-03-29T09:49:48.712Z,4.10
2018-03-29T09:52:15.180Z,4.47
2018-03-29T09:54:41.425Z,4.80
2018-03-29T09:57:08.537Z,4.07
2018-03-29T09:59:34.785Z,5.28
2018-03-29T10:02:15.934Z,5.32
2018-03-29T10:04:42.182Z,5.47
2018-03-29T10:07:14.465Z,5.57
2018-03-29T10:09:41.384Z,6.07
2018-03-29T10:12:07.681Z,6.20
2018-03-29T10:14:33.927Z,4.93
2018-03-29T10:17:00.189Z,5.10
2018-03-29T10:19:26.411Z,4.87
2018-03-29T10:21:52.641Z,5.03
2018-03-29T10:24:18.858Z,5.37
2018-03-29T10:26:45.069Z,5.62
2018-03-29T10:29:11.319Z,5.32
2018-03-29T10:31:38.682Z,5.75
2018-03-29T10:34:05.029Z,5.00
2018-03-29T10:36:31.998Z,4.80
2018-03-29T10:38:58.228Z,5.10
2018-03-29T10:41:25.242Z,4.70
2018-03-29T10:43:51.524Z,5.00
2018-03-29T10:46:18.182Z,5.00
2018-03-29T10:48:44.492Z,4.20
2018-03-29T10:51:12.173Z,4.87
2018-03-29T10:53:38.528Z,4.45
2018-03-29T10:56:05.534Z,4.40
2018-03-29T10:58:31.759Z,5.97
2018-03-29T11:00:58.009Z,5.60
2018-03-29T11:03:24.217Z,4.68
2018-03-29T11:05:50.456Z,5.10
2018-03-29T11:08:16.758Z,6.00
2018-03-29T11:10:43.073Z,5.10
2018-03-29T11:13:09.365Z,5.70
2018-03-29T11:15:36.333Z,5.97
2018-03-29T11:18:02.549Z,8.30
2018-03-29T11:20:29.510Z,6.30
2018-03-29T11:22:55.760Z,6.50
2018-03-29T11:25:22.002Z,6.40
2018-03-29T11:27:48.252Z,6.60
2018-03-29T11:30:15.472Z,6.12
2018-03-29T11:32:41.715Z,5.97
2018-03-29T11:35:07.953Z,6.00
2018-03-29T11:37:34.174Z,6.50
2018-03-29T11:40:00.408Z,6.30
2018-03-29T11:42:26.634Z,6.60
2018-03-29T11:44:52.952Z,6.20
2018-03-29T11:47:19.177Z,6.20
2018-03-29T11:49:46.000Z,6.00
2018-03-29T11:52:13.022Z,5.60
2018-03-29T11:54:39.245Z,5.60
2018-03-29T11:57:05.603Z,6.00
2018-03-29T11:59:31.801Z,5.80
2018-03-29T12:01:58.023Z,6.30
2018-03-29T12:04:24.378Z,6.40
2018-03-29T12:06:50.616Z,7.10
2018-03-29T12:09:16.869Z,6.20
2018-03-29T12:11:43.056Z,6.60
2018-03-29T12:14:09.247Z,6.80
2018-03-29T12:16:36.254Z,8.32
2018-03-29T12:19:02.510Z,6.10
2018-03-29T12:21:28.703Z,5.93
2018-03-29T12:23:54.922Z,5.80
2018-03-29T12:26:21.134Z,5.53
2018-03-29T12:28:47.434Z,7.15
2018-03-29T12:31:14.412Z,5.70
2018-03-29T12:33:40.645Z,6.28
2018-03-29T12:36:06.872Z,6.90
2018-03-29T12:38:33.868Z,5.70
2018-03-29T12:41:00.076Z,9.05
2018-03-29T12:43:26.334Z,10.05
2018-03-29T12:45:53.321Z,10.60
2018-03-29T12:48:19.545Z,12.23
2018-03-29T12:50:45.762Z,5.90
2018-03-29T12:53:11.971Z,6.10
2018-03-29T12:55:42.065Z,7.87
2018-03-29T12:58:08.249Z,8.23
2018-03-29T13:00:34.523Z,7.50
2018-03-29T13:03:00.818Z,6.85
2018-03-29T13:05:27.018Z,6.30
2018-03-29T13:07:53.266Z,7.18
2018-03-29T13:10:19.528Z,6.75
2018-03-29T13:12:45.725Z,7.20
2018-03-29T13:15:11.954Z,6.57
2018-03-29T13:17:38.202Z,6.30
2018-03-29T13:20:04.529Z,6.20
2018-03-29T13:22:31.020Z,6.50
2018-03-29T13:24:58.049Z,7.00
2018-03-29T13:27:24.305Z,7.20
2018-03-29T13:29:50.559Z,7.20
2018-03-29T13:32:16.780Z,7.68
2018-03-29T13:34:43.026Z,7.47
2018-03-29T13:37:09.241Z,7.37
2018-03-29T13:39:36.262Z,7.30
2018-03-29T13:42:02.506Z,7.53
2018-03-29T13:44:28.743Z,7.18
2018-03-29T13:46:54.966Z,7.40
2018-03-29T13:49:21.230Z,8.90
2018-03-29T13:51:48.292Z,7.50
2018-03-29T13:54:15.331Z,7.10
2018-03-29T13:56:42.337Z,6.90
2018-03-29T13:59:08.523Z,6.80
2018-03-29T14:01:34.832Z,7.10
2018-03-29T14:04:01.793Z,7.30
2018-03-29T14:06:28.086Z,7.60
2018-03-29T14:08:54.314Z,7.60
2018-03-29T14:11:20.544Z,7.80
2018-03-29T14:13:46.924Z,12.60
2018-03-29T14:16:13.268Z,7.27
2018-03-29T14:18:39.553Z,9.13
2018-03-29T14:21:06.608Z,7.40
2018-03-29T14:23:33.270Z,8.00
2018-03-29T14:25:59.489Z,7.47
2018-03-29T14:28:25.804Z,7.87
2018-03-29T14:30:52.037Z,7.15
2018-03-29T14:33:18.293Z,7.17
2018-03-29T14:35:44.628Z,7.20
2018-03-29T14:38:10.871Z,7.72
2018-03-29T14:40:37.165Z,7.47
2018-03-29T14:43:03.692Z,7.47
2018-03-29T14:45:30.216Z,7.47
2018-03-29T14:47:56.651Z,6.95
2018-03-29T14:50:22.895Z,7.80
2018-03-29T14:52:49.149Z,7.40
2018-03-29T14:55:15.335Z,7.40
2018-03-29T14:57:41.676Z,7.40
2018-03-29T15:00:07.938Z,10.05
2018-03-29T15:02:34.195Z,8.30
2018-03-29T15:05:01.226Z,7.80
2018-03-29T15:07:27.462Z,7.63
2018-03-29T15:09:54.566Z,7.80
2018-03-29T15:12:20.812Z,7.60
2018-03-29T15:14:47.134Z,9.50
2018-03-29T15:17:13.359Z,7.75
2018-03-29T15:19:39.654Z,10.25
2018-03-29T15:22:05.873Z,9.10
2018-03-29T15:24:32.141Z,11.73
2018-03-29T15:26:58.376Z,16.30
2018-03-29T15:29:24.642Z,10.32
2018-03-29T15:31:51.620Z,9.27
2018-03-29T15:34:17.860Z,8.43
2018-03-29T15:36:44.101Z,8.20
2018-03-29T15:39:10.301Z,7.87
2018-03-29T15:41:36.742Z,8.63
2018-03-29T15:44:03.011Z,7.55
2018-03-29T15:46:29.234Z,7.55
2018-03-29T15:48:55.443Z,7.40
2018-03-29T15:51:21.666Z,7.43
2018-03-29T15:53:48.054Z,7.62
2018-03-29T15:56:15.098Z,7.50
2018-03-29T15:58:42.078Z,7.78
2018-03-29T16:01:08.290Z,8.27
2018-03-29T16:03:34.489Z,9.27
2018-03-29T16:06:01.502Z,7.85
2018-03-29T16:08:27.774Z,8.73
2018-03-29T16:10:54.927Z,8.50
2018-03-29T16:13:21.184Z,7.80
2018-03-29T16:15:47.417Z,7.43
2018-03-29T16:18:13.624Z,8.20
2018-03-29T16:20:39.905Z,7.20
2018-03-29T16:23:06.939Z,7.40
2018-03-29T16:25:33.251Z,7.10
2018-03-29T16:27:59.505Z,7.60
2018-03-29T16:30:25.683Z,7.78
2018-03-29T16:32:51.944Z,7.30
2018-03-29T16:35:18.189Z,7.18
2018-03-29T16:37:44.503Z,6.70
2018-03-29T16:40:10.823Z,7.30
2018-03-29T16:42:37.155Z,6.85
2018-03-29T16:45:03.739Z,7.00
2018-03-29T16:47:30.732Z,6.90
2018-03-29T16:49:56.972Z,6.68
2018-03-29T16:52:23.196Z,7.45
2018-03-29T16:54:49.502Z,7.25
2018-03-29T16:57:15.956Z,7.40
2018-03-29T16:59:42.221Z,7.10
2018-03-29T17:02:09.202Z,6.45
2018-03-29T17:04:35.629Z,6.80
2018-03-29T17:07:02.118Z,6.95
2018-03-29T17:09:28.391Z,6.90
2018-03-29T17:11:54.599Z,6.97
2018-03-29T17:14:20.857Z,6.50
2018-03-29T17:16:47.176Z,6.50
2018-03-29T17:19:13.411Z,6.95
2018-03-29T17:21:39.684Z,7.25
2018-03-29T17:24:05.939Z,6.95
2018-03-29T17:26:32.928Z,8.27
2018-03-29T17:28:59.226Z,10.80
2018-03-29T17:31:25.389Z,8.75
2018-03-29T17:33:51.667Z,7.30
2018-03-29T17:36:18.734Z,7.03
2018-03-29T17:38:45.322Z,7.37
2018-03-29T17:41:12.742Z,7.00
2018-03-29T17:43:39.034Z,6.62
2018-03-29T17:46:06.193Z,6.20
2018-03-29T17:48:32.472Z,6.70
2018-03-29T17:50:58.722Z,6.60
2018-03-29T17:53:25.135Z,7.00
2018-03-29T17:55:51.345Z,10.55
2018-03-29T17:58:17.822Z,15.18
2018-03-29T18:00:45.188Z,11.68
2018-03-29T18:03:12.447Z,12.65
2018-03-29T18:05:38.665Z,10.27
2018-03-29T18:08:05.749Z,16.52
2018-03-29T18:10:32.093Z,14.10
2018-03-29T18:12:58.399Z,15.37
2018-03-29T18:15:24.705Z,15.50
2018-03-29T18:17:52.361Z,11.35
2018-03-29T18:20:21.113Z,8.70
2018-03-29T18:22:47.799Z,8.35
2018-03-29T18:25:14.071Z,7.80
2018-03-29T18:27:41.058Z,9.32
2018-03-29T18:30:08.024Z,8.98
2018-03-29T18:32:34.274Z,9.10
2018-03-29T18:35:01.097Z,10.47
2018-03-29T18:37:27.370Z,10.60
2018-03-29T18:39:53.633Z,10.20
2018-03-29T18:42:20.574Z,11.68
2018-03-29T18:44:47.551Z,12.40
2018-03-29T18:47:13.786Z,12.10
2018-03-29T18:49:40.054Z,12.50
2018-03-29T18:52:06.270Z,13.38
2018-03-29T18:54:32.486Z,12.60
2018-03-29T18:56:58.854Z,13.37
2018-03-29T18:59:25.908Z,14.05
2018-03-29T19:01:52.115Z,14.50
2018-03-29T19:04:18.299Z,14.73
2018-03-29T19:06:44.535Z,14.52
2018-03-29T19:09:10.754Z,15.43
2018-03-29T19:11:36.980Z,14.00
2018-03-29T19:14:03.240Z,14.60
2018-03-29T19:16:29.485Z,13.20
2018-03-29T19:18:55.706Z,14.20
2018-03-29T19:21:21.923Z,13.98
2018-03-29T19:23:48.161Z,9.38
2018-03-29T19:26:14.382Z,8.82
2018-03-29T19:28:40.598Z,8.32
2018-03-29T19:31:06.865Z,10.75
2018-03-29T19:33:33.790Z,16.15
2018-03-29T19:36:00.067Z,13.93
2018-03-29T19:38:26.292Z,18.73
2018-03-29T19:40:52.544Z,25.00
2018-03-29T19:43:18.793Z,23.17
2018-03-29T19:45:45.013Z,14.25
2018-03-29T19:48:11.360Z,10.60
2018-03-29T19:50:37.790Z,11.40
2018-03-29T19:53:04.322Z,11.57
2018-03-29T19:55:30.593Z,11.93
2018-03-29T19:57:57.835Z,16.02
2018-03-29T20:00:24.319Z,18.52
2018-03-29T20:02:50.541Z,17.77
2018-03-29T20:05:16.786Z,14.82
2018-03-29T20:07:43.034Z,14.43
2018-03-29T20:10:10.225Z,19.02
2018-03-29T20:12:36.411Z,18.95
2018-03-29T20:15:02.636Z,19.37
2018-03-29T20:17:29.631Z,19.83
2018-03-29T20:19:55.871Z,21.20
2018-03-29T20:22:22.122Z,22.40
2018-03-29T20:24:48.344Z,19.62
2018-03-29T20:27:14.546Z,19.23
2018-03-29T20:29:40.754Z,19.48
2018-03-29T20:32:06.932Z,19.55
2018-03-29T20:34:33.226Z,19.42
2018-03-29T20:36:59.444Z,21.00
2018-03-29T20:39:25.673Z,23.50
2018-03-29T20:41:51.913Z,26.50
2018-03-29T20:44:18.124Z,26.65
2018-03-29T20:46:44.327Z,24.17
2018-03-29T20:49:10.521Z,24.45
2018-03-29T20:51:36.752Z,23.63
2018-03-29T20:54:02.994Z,23.10
2018-03-29T20:56:29.965Z,22.90
2018-03-29T20:58:56.200Z,22.00
2018-03-29T21:01:22.437Z,21.95
2018-03-29T21:03:48.651Z,21.42
2018-03-29T21:06:14.867Z,21.33
2018-03-29T21:08:41.066Z,20.45
2018-03-29T21:11:07.246Z,19.10
2018-03-29T21:13:33.495Z,19.25
2018-03-29T21:15:59.742Z,19.42
2018-03-29T21:18:25.950Z,27.10
2018-03-29T21:20:52.234Z,29.33
2018-03-29T21:23:18.430Z,27.98
2018-03-29T21:25:44.621Z,27.35
2018-03-29T21:28:10.858Z,22.77
2018-03-29T21:30:37.166Z,19.55
2018-03-29T21:33:03.387Z,18.77
2018-03-29T21:35:29.673Z,17.87
2018-03-29T21:37:56.682Z,16.50
2018-03-29T21:40:22.867Z,15.88
2018-03-29T21:42:49.099Z,14.60
2018-03-29T21:45:15.300Z,15.45
2018-03-29T21:47:41.495Z,14.27
2018-03-29T21:50:07.735Z,13.75
2018-03-29T21:52:33.960Z,14.00
2018-03-29T21:55:00.168Z,13.40
2018-03-29T21:57:26.385Z,12.70
2018-03-29T21:59:52.705Z,12.70
2018-03-29T22:02:18.930Z,12.30
2018-03-29T22:04:45.202Z,11.43
2018-03-29T22:07:11.381Z,11.20
2018-03-29T22:09:37.612Z,10.60
2018-03-29T22:12:03.862Z,10.07
2018-03-29T22:14:30.088Z,9.80
2018-03-29T22:16:56.262Z,10.30
2018-03-29T22:19:23.266Z,9.50
2018-03-29T22:21:49.485Z,10.35
2018-03-29T22:24:15.668Z,9.70
2018-03-29T22:26:42.614Z,9.65
2018-03-29T22:29:09.588Z,9.35
2018-03-29T22:31:35.833Z,9.20
2018-03-29T22:34:02.119Z,9.60
2018-03-29T22:36:29.088Z,8.90
2018-03-29T22:38:56.108Z,9.98
2018-03-29T22:41:22.362Z,8.80
2018-03-29T22:43:48.595Z,8.60
2018-03-29T22:46:14.883Z,9.10
2018-03-29T22:48:41.874Z,8.90
2018-03-29T22:51:08.130Z,9.45
2018-03-29T22:53:34.431Z,9.60
2018-03-29T22:56:00.652Z,9.10
2018-03-29T22:58:26.885Z,8.90
2018-03-29T23:00:53.148Z,8.70
2018-03-29T23:03:19.430Z,9.50
2018-03-29T23:05:45.657Z,8.80
2018-03-29T23:08:11.952Z,9.30
2018-03-29T23:10:38.956Z,9.40
2018-03-29T23:13:05.184Z,9.50
2018-03-29T23:15:31.399Z,9.00
2018-03-29T23:17:57.586Z,8.55
2018-03-29T23:20:24.581Z,8.88
2018-03-29T23:22:50.815Z,9.23
2018-03-29T23:25:17.040Z,8.73
2018-03-29T23:27:43.302Z,8.50
2018-03-29T23:30:10.257Z,8.90
2018-03-29T23:32:37.247Z,9.80
2018-03-29T23:35:03.529Z,9.00
2018-03-29T23:37:30.511Z,9.60
2018-03-29T23:39:56.756Z,9.63
2018-03-29T23:42:22.967Z,8.80
2018-03-29T23:44:49.237Z,9.52
2018-03-29T23:47:16.041Z,8.95
2018-03-29T23:49:42.298Z,9.30
2018-03-29T23:52:08.586Z,8.88
2018-03-29T23:54:34.840Z,9.10
2018-03-29T23:57:05.930Z,9.63
2018-03-29T23:59:32.183Z,9.20
